createdAt,value
2023-01-27T00:01:07.860Z,47.75
2023-01-27T00:03:36.264Z,47.80
2023-01-27T00:06:05.004Z,52.17
2023-01-27T00:08:33.548Z,64.28
2023-01-27T00:11:20.949Z,50.67
2023-01-27T00:13:49.594Z,51.10
2023-01-27T00:16:17.497Z,50.55
2023-01-27T00:18:45.994Z,51.72
2023-01-27T00:21:32.558Z,55.67
2023-01-27T00:24:26.786Z,56.53
2023-01-27T00:26:54.745Z,53.08
2023-01-27T00:29:23.414Z,59.22
2023-01-27T00:32:11.344Z,51.72
2023-01-27T00:34:41.342Z,49.53
2023-01-27T00:37:09.525Z,55.53
2023-01-27T00:39:37.704Z,49.35
2023-01-27T00:42:05.997Z,55.63
2023-01-27T00:44:36.736Z,54.80
2023-01-27T00:47:05.401Z,58.97
2023-01-27T00:49:33.734Z,49.55
2023-01-27T00:52:02.649Z,58.92
2023-01-27T00:54:31.001Z,56.30
2023-01-27T00:56:59.465Z,61.35
2023-01-27T00:59:27.718Z,60.55
2023-01-27T01:01:55.933Z,61.70
2023-01-27T01:04:24.057Z,49.88
2023-01-27T01:06:51.944Z,55.55
2023-01-27T01:09:20.685Z,52.92
2023-01-27T01:11:49.305Z,49.60
2023-01-27T01:14:17.419Z,52.78
2023-01-27T01:16:45.688Z,55.35
2023-01-27T01:19:14.234Z,64.95
2023-01-27T01:21:42.101Z,59.90
2023-01-27T01:24:11.758Z,61.38
2023-01-27T01:26:40.087Z,55.10
2023-01-27T01:29:08.703Z,59.78
2023-01-27T01:31:36.806Z,62.88
2023-01-27T01:34:05.277Z,61.88
2023-01-27T01:36:33.269Z,60.80
2023-01-27T01:39:02.114Z,57.42
2023-01-27T01:41:30.004Z,61.63
2023-01-27T01:43:58.385Z,67.00
2023-01-27T01:46:26.287Z,60.35
2023-01-27T01:48:55.657Z,59.30
2023-01-27T01:51:44.138Z,65.68
2023-01-27T01:54:19.745Z,69.05
2023-01-27T01:56:57.077Z,60.20
2023-01-27T01:59:50.599Z,62.45
2023-01-27T02:02:24.435Z,73.15
2023-01-27T02:05:01.571Z,66.82
2023-01-27T02:07:45.902Z,69.93
2023-01-27T02:10:14.908Z,62.47
2023-01-27T02:12:43.157Z,59.15
2023-01-27T02:15:12.499Z,59.13
2023-01-27T02:17:40.553Z,63.80
2023-01-27T02:20:28.083Z,60.95
2023-01-27T02:23:00.337Z,62.60
2023-01-27T02:25:34.612Z,52.80
2023-01-27T02:28:04.242Z,56.83
2023-01-27T02:30:33.459Z,64.70
2023-01-27T02:33:01.717Z,60.58
2023-01-27T02:35:36.371Z,60.30
2023-01-27T02:38:05.871Z,64.15
2023-01-27T02:40:35.111Z,61.50
2023-01-27T02:43:05.241Z,59.03
2023-01-27T02:45:33.769Z,56.00
2023-01-27T02:48:02.072Z,58.55
2023-01-27T02:50:30.769Z,67.68
2023-01-27T02:52:58.837Z,56.58
2023-01-27T02:55:26.806Z,61.53
2023-01-27T02:57:54.897Z,59.08
2023-01-27T03:00:46.288Z,55.15
2023-01-27T03:03:15.037Z,67.38
2023-01-27T03:05:43.685Z,64.63
2023-01-27T03:08:11.652Z,62.40
2023-01-27T03:10:40.482Z,58.88
2023-01-27T03:13:08.251Z,60.75
2023-01-27T03:15:59.561Z,61.85
2023-01-27T03:18:27.559Z,61.75
2023-01-27T03:21:01.745Z,60.08
2023-01-27T03:23:30.439Z,56.22
2023-01-27T03:25:59.332Z,53.80
2023-01-27T03:28:27.212Z,59.00
2023-01-27T03:31:20.179Z,58.55
2023-01-27T03:33:54.051Z,61.72
2023-01-27T03:37:01.128Z,76.07
2023-01-27T03:39:49.733Z,95.85
2023-01-27T03:42:37.114Z,94.70
2023-01-27T03:45:25.076Z,96.68
2023-01-27T03:47:53.309Z,100.95
2023-01-27T03:50:21.392Z,84.53
2023-01-27T03:53:03.504Z,81.57
2023-01-27T03:55:35.960Z,90.28
2023-01-27T04:00:51.469Z,77.13
2023-01-27T04:03:39.869Z,78.47
2023-01-27T04:06:29.139Z,80.75
2023-01-27T04:08:57.860Z,80.35
2023-01-27T04:11:44.421Z,87.72
2023-01-27T04:14:13.315Z,75.75
2023-01-27T04:16:41.583Z,66.82
2023-01-27T04:19:11.524Z,66.90
2023-01-27T04:21:39.927Z,108.25
2023-01-27T04:24:17.327Z,96.20
2023-01-27T04:26:45.909Z,72.63
2023-01-27T04:29:14.452Z,73.65
2023-01-27T04:31:43.063Z,68.50
2023-01-27T04:34:12.717Z,67.25
2023-01-27T04:36:42.330Z,63.15
2023-01-27T04:39:10.675Z,62.33
2023-01-27T04:41:38.829Z,62.10
2023-01-27T04:44:07.700Z,59.67
2023-01-27T04:46:35.760Z,59.50
2023-01-27T04:49:04.875Z,59.60
2023-01-27T04:51:33.508Z,61.47
2023-01-27T04:54:04.198Z,64.00
2023-01-27T04:56:42.812Z,65.97
2023-01-27T04:59:15.949Z,61.33
2023-01-27T05:01:43.883Z,59.15
2023-01-27T05:04:11.929Z,63.55
2023-01-27T05:06:39.710Z,64.75
2023-01-27T05:09:08.314Z,67.70
2023-01-27T05:11:37.281Z,59.75
2023-01-27T05:14:06.769Z,59.15
2023-01-27T05:16:35.297Z,61.70
2023-01-27T05:19:04.686Z,64.05
2023-01-27T05:21:32.710Z,65.50
2023-01-27T05:24:02.364Z,62.95
2023-01-27T05:26:29.946Z,59.20
2023-01-27T05:28:59.364Z,60.47
2023-01-27T05:31:29.994Z,55.60
2023-01-27T05:34:00.758Z,65.30
2023-01-27T05:36:29.331Z,55.90
2023-01-27T05:38:59.149Z,64.88
2023-01-27T05:41:31.440Z,67.63
2023-01-27T05:44:00.205Z,69.57
2023-01-27T05:46:30.407Z,67.80
2023-01-27T05:49:07.225Z,65.90
2023-01-27T05:51:37.158Z,70.97
2023-01-27T05:54:05.840Z,70.78
2023-01-27T05:56:33.942Z,67.13
2023-01-27T05:59:02.517Z,71.47
2023-01-27T06:01:32.566Z,66.97
2023-01-27T06:04:01.850Z,73.88
2023-01-27T06:06:32.483Z,69.82
2023-01-27T06:09:01.103Z,73.03
2023-01-27T06:11:29.046Z,74.60
2023-01-27T06:13:57.694Z,68.88
2023-01-27T06:16:26.198Z,68.55
2023-01-27T06:18:54.365Z,75.97
2023-01-27T06:21:22.268Z,63.63
2023-01-27T06:23:50.984Z,73.47
2023-01-27T06:26:20.332Z,74.78
2023-01-27T06:28:48.786Z,66.38
2023-01-27T06:31:19.854Z,73.18
2023-01-27T06:33:48.263Z,68.97
2023-01-27T06:36:18.422Z,71.93
2023-01-27T06:38:47.492Z,65.85
2023-01-27T06:41:15.494Z,78.28
2023-01-27T06:43:43.911Z,76.15
2023-01-27T06:46:11.748Z,74.05
2023-01-27T06:48:40.402Z,77.95
2023-01-27T06:51:08.189Z,73.82
2023-01-27T06:53:37.651Z,71.28
2023-01-27T06:56:06.489Z,76.03
2023-01-27T06:58:34.834Z,76.57
2023-01-27T07:01:06.434Z,69.35
2023-01-27T07:06:02.293Z,74.22
2023-01-27T07:08:30.642Z,74.15
2023-01-27T07:10:58.726Z,72.10
2023-01-27T07:13:26.702Z,67.68
2023-01-27T07:15:56.462Z,72.43
2023-01-27T07:18:24.775Z,72.28
2023-01-27T07:20:52.631Z,71.68
2023-01-27T07:23:21.124Z,71.68
2023-01-27T07:25:48.894Z,72.47
2023-01-27T07:28:17.388Z,71.68
2023-01-27T07:30:45.239Z,77.70
2023-01-27T07:33:16.918Z,76.40
2023-01-27T07:35:44.924Z,79.70
2023-01-27T07:38:12.915Z,76.85
2023-01-27T07:40:40.890Z,80.65
2023-01-27T07:43:11.418Z,89.32
2023-01-27T07:45:41.392Z,66.22
2023-01-27T07:48:10.210Z,76.40
2023-01-27T07:50:41.236Z,80.88
2023-01-27T07:53:10.988Z,79.88
2023-01-27T07:55:38.657Z,81.28
2023-01-27T07:58:07.692Z,83.50
2023-01-27T08:00:36.401Z,86.28
2023-01-27T08:03:06.925Z,84.70
2023-01-27T08:05:35.472Z,70.82
2023-01-27T08:08:06.303Z,75.03
2023-01-27T08:10:34.150Z,78.47
2023-01-27T08:13:02.345Z,79.85
2023-01-27T08:15:30.190Z,79.15
2023-01-27T08:17:59.744Z,77.32
2023-01-27T08:20:28.302Z,81.50
2023-01-27T08:22:57.433Z,85.63
2023-01-27T08:25:26.503Z,90.88
2023-01-27T08:27:57.133Z,84.05
2023-01-27T08:32:56.096Z,82.55
2023-01-27T08:35:24.058Z,85.10
2023-01-27T08:37:52.355Z,81.35
2023-01-27T08:40:20.777Z,80.18
2023-01-27T08:42:51.061Z,82.88
2023-01-27T08:45:19.412Z,77.97
2023-01-27T08:47:48.115Z,83.97
2023-01-27T08:50:16.709Z,79.85
2023-01-27T08:52:45.140Z,83.30
2023-01-27T08:55:13.259Z,80.82
2023-01-27T08:57:41.640Z,78.22
2023-01-27T09:00:13.201Z,78.70
2023-01-27T09:02:42.061Z,75.60
2023-01-27T09:05:10.292Z,83.80
2023-01-27T09:07:38.636Z,79.72
2023-01-27T09:10:14.450Z,74.05
2023-01-27T09:12:44.530Z,75.55
2023-01-27T09:15:13.775Z,75.20
2023-01-27T09:17:42.511Z,73.75
2023-01-27T09:20:11.292Z,69.55
2023-01-27T09:22:41.472Z,82.40
2023-01-27T09:25:13.227Z,79.18
2023-01-27T09:27:41.668Z,83.50
2023-01-27T09:30:11.858Z,71.55
2023-01-27T09:32:40.205Z,78.10
2023-01-27T09:35:08.701Z,74.65
2023-01-27T09:37:45.216Z,72.50
2023-01-27T09:40:23.082Z,71.25
2023-01-27T09:42:57.434Z,71.95
2023-01-27T09:45:33.703Z,73.00
2023-01-27T09:48:10.582Z,75.15
2023-01-27T09:50:40.986Z,68.05
2023-01-27T09:53:28.490Z,71.18
2023-01-27T09:56:16.605Z,71.78
2023-01-27T09:59:08.433Z,70.38
2023-01-27T10:01:49.629Z,70.00
2023-01-27T10:04:39.212Z,71.95
2023-01-27T10:07:20.454Z,73.22
2023-01-27T10:10:08.041Z,68.68
2023-01-27T10:13:09.158Z,61.78
2023-01-27T10:15:57.373Z,64.22
2023-01-27T10:18:51.437Z,61.97
2023-01-27T10:21:59.594Z,60.15
2023-01-27T10:24:57.668Z,63.88
2023-01-27T10:27:27.615Z,65.28
2023-01-27T10:30:35.451Z,73.20
2023-01-27T10:33:23.300Z,68.90
2023-01-27T10:35:58.989Z,74.95
2023-01-27T10:38:46.298Z,66.10
2023-01-27T10:41:28.006Z,66.88
2023-01-27T10:44:15.179Z,48.95
2023-01-27T10:47:13.954Z,61.78
2023-01-27T10:49:50.026Z,61.85
2023-01-27T10:52:26.474Z,59.90
2023-01-27T10:55:16.753Z,60.30
2023-01-27T10:57:55.624Z,67.72
2023-01-27T11:01:19.960Z,65.13
2023-01-27T11:03:53.873Z,61.15
2023-01-27T11:06:31.538Z,57.58
2023-01-27T11:09:17.395Z,59.78
2023-01-27T11:11:47.017Z,53.38
2023-01-27T11:14:27.086Z,58.35
2023-01-27T11:17:15.908Z,53.40
2023-01-27T11:19:50.643Z,54.55
2023-01-27T11:22:51.156Z,55.15
2023-01-27T11:25:27.139Z,64.35
2023-01-27T11:28:25.310Z,64.75
2023-01-27T11:31:21.840Z,55.00
2023-01-27T11:34:04.032Z,55.70
2023-01-27T11:36:32.623Z,52.95
2023-01-27T11:39:03.835Z,58.20
2023-01-27T11:41:38.112Z,61.97
2023-01-27T11:44:16.097Z,57.13
2023-01-27T11:46:45.714Z,54.47
2023-01-27T11:49:20.435Z,59.90
2023-01-27T11:51:49.827Z,55.40
2023-01-27T11:54:24.836Z,63.42
2023-01-27T11:56:52.527Z,68.07
2023-01-27T11:59:26.046Z,54.90
2023-01-27T12:04:38.847Z,62.20
2023-01-27T12:07:14.215Z,59.17
2023-01-27T12:09:42.880Z,68.57
2023-01-27T12:12:19.712Z,70.22
2023-01-27T12:14:56.033Z,67.63
2023-01-27T12:17:45.931Z,62.28
2023-01-27T12:20:25.554Z,69.30
2023-01-27T12:22:55.323Z,52.08
2023-01-27T12:25:54.618Z,69.60
2023-01-27T12:28:30.824Z,69.30
2023-01-27T12:31:12.364Z,64.95
2023-01-27T12:33:50.985Z,76.07
2023-01-27T12:36:25.318Z,68.95
2023-01-27T12:39:00.765Z,71.82
2023-01-27T12:41:31.619Z,71.57
2023-01-27T12:44:09.786Z,78.90
2023-01-27T12:46:40.534Z,73.57
2023-01-27T12:49:15.133Z,83.78
2023-01-27T12:51:48.795Z,81.53
2023-01-27T12:56:47.022Z,80.20
2023-01-27T12:59:17.535Z,85.60
2023-01-27T13:01:59.170Z,85.75
2023-01-27T13:04:27.754Z,78.55
2023-01-27T13:07:07.521Z,85.97
2023-01-27T13:09:54.438Z,84.03
2023-01-27T13:12:25.201Z,82.25
2023-01-27T13:15:17.521Z,89.63
2023-01-27T13:17:53.907Z,89.47
2023-01-27T13:20:27.615Z,96.35
2023-01-27T13:23:02.935Z,91.22
2023-01-27T13:26:02.051Z,88.47
2023-01-27T13:28:51.574Z,83.88
2023-01-27T13:31:59.755Z,92.22
2023-01-27T13:34:40.041Z,91.97
2023-01-27T13:37:15.466Z,87.10
2023-01-27T13:40:02.932Z,86.47
2023-01-27T13:42:40.368Z,89.78
2023-01-27T13:45:33.854Z,93.30
2023-01-27T13:48:05.795Z,88.55
2023-01-27T13:50:38.655Z,67.00
2023-01-27T13:53:06.589Z,78.35
2023-01-27T13:55:56.615Z,85.25
2023-01-27T13:58:38.096Z,80.60
2023-01-27T14:01:25.740Z,89.38
2023-01-27T14:04:17.954Z,89.22
2023-01-27T14:07:03.943Z,77.70
2023-01-27T14:10:09.603Z,92.38
2023-01-27T14:12:49.737Z,99.32
2023-01-27T14:15:26.947Z,77.47
2023-01-27T14:18:04.681Z,89.95
2023-01-27T14:21:09.744Z,91.20
2023-01-27T14:24:01.088Z,95.63
2023-01-27T14:26:43.178Z,92.40
2023-01-27T14:29:52.461Z,90.95
2023-01-27T14:32:34.309Z,94.78
2023-01-27T14:35:39.862Z,93.07
2023-01-27T14:38:19.232Z,91.35
2023-01-27T14:41:04.779Z,91.88
2023-01-27T14:43:58.697Z,96.55
2023-01-27T14:46:48.290Z,97.45
2023-01-27T14:49:38.016Z,102.28
2023-01-27T14:52:09.268Z,107.97
2023-01-27T14:54:58.509Z,93.80
2023-01-27T14:57:45.548Z,106.78
2023-01-27T15:01:04.905Z,104.43
2023-01-27T15:04:05.739Z,103.05
2023-01-27T15:06:58.119Z,104.05
2023-01-27T15:09:33.258Z,111.38
2023-01-27T15:12:10.157Z,108.20
2023-01-27T15:15:03.337Z,106.38
2023-01-27T15:17:53.492Z,83.90
2023-01-27T15:21:06.798Z,111.80
2023-01-27T15:23:47.015Z,109.13
2023-01-27T15:26:17.975Z,113.13
2023-01-27T15:28:46.134Z,120.13
2023-01-27T15:31:14.978Z,120.22
2023-01-27T15:34:15.371Z,114.45
2023-01-27T15:37:21.177Z,107.70
2023-01-27T15:40:04.411Z,99.22
2023-01-27T15:43:02.639Z,103.30
2023-01-27T15:45:39.060Z,108.90
2023-01-27T15:48:12.729Z,109.30
2023-01-27T15:50:48.144Z,107.97
2023-01-27T15:53:36.508Z,107.75
2023-01-27T15:56:05.110Z,113.03
2023-01-27T15:58:40.893Z,107.75
2023-01-27T16:01:11.360Z,110.43
2023-01-27T16:03:45.343Z,95.28
2023-01-27T16:06:18.402Z,104.50
2023-01-27T16:08:57.999Z,100.85
2023-01-27T16:11:29.224Z,106.00
2023-01-27T16:14:12.758Z,101.95
2023-01-27T16:16:41.825Z,97.72
2023-01-27T16:19:11.084Z,106.72
2023-01-27T16:21:45.033Z,97.20
2023-01-27T16:24:31.964Z,103.13
2023-01-27T16:27:34.181Z,97.82
2023-01-27T16:30:23.535Z,92.07
2023-01-27T16:33:04.777Z,90.68
2023-01-27T16:35:40.215Z,107.50
2023-01-27T16:38:20.382Z,97.70
2023-01-27T16:41:11.454Z,103.20
2023-01-27T16:43:47.023Z,100.78
2023-01-27T16:46:35.414Z,114.30
2023-01-27T16:49:11.554Z,109.05
2023-01-27T16:51:40.186Z,101.07
2023-01-27T16:54:42.996Z,121.03
2023-01-27T16:57:31.440Z,83.00
2023-01-27T17:00:02.233Z,124.28
2023-01-27T17:02:32.609Z,113.18
2023-01-27T17:05:04.361Z,122.05
2023-01-27T17:07:32.853Z,127.38
2023-01-27T17:10:18.923Z,125.55
2023-01-27T17:12:52.909Z,119.43
2023-01-27T17:15:22.681Z,118.97
2023-01-27T17:17:52.249Z,112.65
2023-01-27T17:20:26.925Z,114.63
2023-01-27T17:22:55.952Z,108.90
2023-01-27T17:25:34.944Z,98.40
2023-01-27T17:28:11.239Z,103.43
2023-01-27T17:30:42.219Z,105.40
2023-01-27T17:33:22.826Z,109.70
2023-01-27T17:35:54.381Z,99.75
2023-01-27T17:38:24.912Z,96.23
2023-01-27T17:40:54.633Z,87.03
2023-01-27T17:43:41.077Z,95.53
2023-01-27T17:46:16.619Z,85.75
2023-01-27T17:48:52.008Z,86.72
2023-01-27T17:51:28.425Z,76.40
2023-01-27T17:53:57.155Z,101.18
2023-01-27T17:56:29.862Z,84.07
2023-01-27T17:59:03.579Z,77.43
2023-01-27T18:01:32.293Z,79.35
2023-01-27T18:04:01.760Z,88.30
2023-01-27T18:06:32.403Z,77.78
2023-01-27T18:09:14.658Z,77.82
2023-01-27T18:11:54.062Z,80.80
2023-01-27T18:14:22.859Z,74.43
2023-01-27T18:17:22.736Z,83.28
2023-01-27T18:19:52.520Z,81.50
2023-01-27T18:22:20.423Z,72.57
2023-01-27T18:25:00.904Z,89.68
2023-01-27T18:27:34.973Z,91.72
2023-01-27T18:30:13.241Z,83.13
2023-01-27T18:32:43.588Z,83.80
2023-01-27T18:35:31.954Z,87.57
2023-01-27T18:38:05.507Z,87.25
2023-01-27T18:40:36.079Z,69.82
2023-01-27T18:43:05.785Z,83.40
2023-01-27T18:45:34.256Z,73.72
2023-01-27T18:48:03.979Z,90.30
2023-01-27T18:50:32.733Z,77.18
2023-01-27T18:53:00.583Z,85.68
2023-01-27T18:55:30.781Z,76.90
2023-01-27T18:58:00.193Z,80.72
2023-01-27T19:00:37.980Z,78.97
2023-01-27T19:03:10.709Z,86.90
2023-01-27T19:05:40.900Z,88.22
2023-01-27T19:08:14.359Z,77.65
2023-01-27T19:10:43.133Z,89.75
2023-01-27T19:13:11.811Z,80.82
2023-01-27T19:15:46.231Z,83.07
2023-01-27T19:18:37.941Z,88.25
2023-01-27T19:21:06.562Z,79.68
2023-01-27T19:23:34.281Z,78.38
2023-01-27T19:26:03.837Z,82.18
2023-01-27T19:28:39.355Z,78.63
2023-01-27T19:31:08.073Z,79.88
2023-01-27T19:33:42.132Z,75.13
2023-01-27T19:36:29.648Z,76.78
2023-01-27T19:39:10.034Z,82.47
2023-01-27T19:41:38.408Z,76.63
2023-01-27T19:44:06.995Z,72.72
2023-01-27T19:46:35.375Z,84.32
2023-01-27T19:49:03.798Z,79.55
2023-01-27T19:51:32.669Z,81.18
2023-01-27T19:54:01.308Z,75.13
2023-01-27T19:56:31.838Z,73.70
2023-01-27T19:58:59.871Z,81.53
2023-01-27T20:01:27.895Z,73.18
2023-01-27T20:03:56.294Z,82.13
2023-01-27T20:06:26.806Z,72.35
2023-01-27T20:08:57.168Z,88.13
2023-01-27T20:11:34.907Z,83.28
2023-01-27T20:14:06.008Z,86.93
2023-01-27T20:16:34.405Z,90.50
2023-01-27T20:19:02.991Z,90.63
2023-01-27T20:21:31.716Z,91.80
2023-01-27T20:24:00.385Z,96.20
2023-01-27T20:26:29.967Z,91.30
2023-01-27T20:28:59.459Z,85.00
2023-01-27T20:31:28.030Z,80.82
2023-01-27T20:33:56.710Z,88.78
2023-01-27T20:36:25.421Z,78.57
2023-01-27T20:38:53.734Z,84.68
2023-01-27T20:41:23.306Z,73.43
2023-01-27T20:43:56.689Z,89.55
2023-01-27T20:46:25.051Z,83.68
2023-01-27T20:48:53.708Z,84.43
2023-01-27T20:51:21.577Z,79.00
2023-01-27T20:53:49.973Z,82.22
2023-01-27T20:56:20.045Z,81.38
2023-01-27T20:58:48.925Z,77.15
2023-01-27T21:01:22.499Z,77.65
2023-01-27T21:03:50.974Z,81.00
2023-01-27T21:06:22.511Z,79.65
2023-01-27T21:08:50.961Z,80.60
2023-01-27T21:11:20.740Z,79.72
2023-01-27T21:13:50.274Z,68.85
2023-01-27T21:16:18.606Z,79.88
2023-01-27T21:18:47.682Z,81.15
2023-01-27T21:21:28.192Z,77.75
2023-01-27T21:23:58.816Z,75.03
2023-01-27T21:26:26.695Z,74.15
2023-01-27T21:28:55.235Z,74.95
2023-01-27T21:31:24.976Z,83.55
2023-01-27T21:33:53.841Z,83.47
2023-01-27T21:36:22.253Z,78.55
2023-01-27T21:38:54.156Z,81.95
2023-01-27T21:41:43.231Z,74.32
2023-01-27T21:44:49.630Z,75.13
2023-01-27T21:47:19.559Z,87.40
2023-01-27T21:50:01.497Z,78.57
2023-01-27T21:52:39.413Z,82.63
2023-01-27T21:55:09.981Z,74.15
2023-01-27T21:57:39.191Z,66.75
2023-01-27T22:00:10.051Z,75.75
2023-01-27T22:02:42.664Z,72.68
2023-01-27T22:05:11.729Z,87.68
2023-01-27T22:07:41.087Z,79.00
2023-01-27T22:10:15.700Z,79.32
2023-01-27T22:12:44.461Z,89.45
2023-01-27T22:15:15.183Z,76.22
2023-01-27T22:17:44.736Z,72.20
2023-01-27T22:20:17.229Z,74.53
2023-01-27T22:22:46.460Z,81.50
2023-01-27T22:25:16.505Z,84.28
2023-01-27T22:27:45.346Z,73.18
2023-01-27T22:30:15.946Z,76.80
2023-01-27T22:32:45.599Z,73.07
2023-01-27T22:35:15.678Z,73.30
2023-01-27T22:37:44.925Z,70.13
2023-01-27T22:40:13.640Z,75.22
2023-01-27T22:42:42.236Z,78.72
2023-01-27T22:45:10.829Z,74.10
2023-01-27T22:47:39.111Z,83.75
2023-01-27T22:50:07.456Z,79.65
2023-01-27T22:52:36.967Z,82.28
2023-01-27T22:55:09.402Z,86.70
2023-01-27T22:57:38.205Z,92.47
2023-01-27T23:00:07.109Z,81.38
2023-01-27T23:02:36.755Z,81.75
2023-01-27T23:05:05.329Z,86.97
2023-01-27T23:07:33.776Z,82.78
2023-01-27T23:10:01.645Z,77.90
2023-01-27T23:12:30.027Z,79.22
2023-01-27T23:15:00.681Z,77.50
2023-01-27T23:17:29.428Z,87.13
2023-01-27T23:19:57.321Z,65.20
2023-01-27T23:22:25.850Z,72.90
2023-01-27T23:24:53.905Z,77.40
2023-01-27T23:27:22.071Z,68.65
2023-01-27T23:29:49.957Z,72.30
2023-01-27T23:32:18.600Z,75.63
2023-01-27T23:34:46.308Z,74.78
2023-01-27T23:37:14.648Z,74.25
2023-01-27T23:39:46.271Z,68.50
2023-01-27T23:42:15.177Z,59.67
2023-01-27T23:44:43.020Z,67.18
2023-01-27T23:47:12.300Z,66.55
2023-01-27T23:49:40.050Z,59.40
2023-01-27T23:52:08.209Z,64.75
2023-01-27T23:54:36.387Z,63.03
2023-01-27T23:57:04.378Z,66.25
2023-01-27T23:59:32.672Z,60.30
